sensor_id;sensor_type;location;lat;lon;timestamp;temperature;humidity
40291;DHT22;26000;48.304;13.626;2023-03-14T00:01:38;6.90;99.90
40291;DHT22;26000;48.304;13.626;2023-03-14T00:04:05;7.10;99.90
40291;DHT22;26000;48.304;13.626;2023-03-14T00:06:30;7.50;99.90
40291;DHT22;26000;48.304;13.626;2023-03-14T00:08:57;7.70;99.90
40291;DHT22;26000;48.304;13.626;2023-03-14T00:11:23;8.10;99.90
40291;DHT22;26000;48.304;13.626;2023-03-14T00:13:49;8.50;99.90
40291;DHT22;26000;48.304;13.626;2023-03-14T00:16:16;8.60;99.90
40291;DHT22;26000;48.304;13.626;2023-03-14T00:18:41;8.80;99.90
40291;DHT22;26000;48.304;13.626;2023-03-14T00:21:08;8.90;99.90
40291;DHT22;26000;48.304;13.626;2023-03-14T00:23:36;9.00;99.90
40291;DHT22;26000;48.304;13.626;2023-03-14T00:26:04;8.90;99.90
40291;DHT22;26000;48.304;13.626;2023-03-14T00:28:30;8.90;99.90
40291;DHT22;26000;48.304;13.626;2023-03-14T00:30:56;8.90;99.90
40291;DHT22;26000;48.304;13.626;2023-03-14T00:33:22;8.80;99.90
40291;DHT22;26000;48.304;13.626;2023-03-14T00:35:59;8.60;99.90
40291;DHT22;26000;48.304;13.626;2023-03-14T00:38:26;8.50;99.90
40291;DHT22;26000;48.304;13.626;2023-03-14T00:40:52;8.50;99.90
40291;DHT22;26000;48.304;13.626;2023-03-14T00:43:19;8.40;99.90
40291;DHT22;26000;48.304;13.626;2023-03-14T00:45:47;8.30;99.90
40291;DHT22;26000;48.304;13.626;2023-03-14T00:48:13;8.30;99.90
40291;DHT22;26000;48.304;13.626;2023-03-14T00:50:39;8.20;99.90
40291;DHT22;26000;48.304;13.626;2023-03-14T00:53:05;8.20;99.90
40291;DHT22;26000;48.304;13.626;2023-03-14T00:55:30;8.20;99.90
40291;DHT22;26000;48.304;13.626;2023-03-14T00:57:56;8.10;99.90
40291;DHT22;26000;48.304;13.626;2023-03-14T01:00:22;8.10;99.90
40291;DHT22;26000;48.304;13.626;2023-03-14T01:02:48;8.10;99.90
40291;DHT22;26000;48.304;13.626;2023-03-14T01:05:13;8.10;99.90
40291;DHT22;26000;48.304;13.626;2023-03-14T01:07:39;8.00;99.90
40291;DHT22;26000;48.304;13.626;2023-03-14T01:10:06;8.00;99.90
40291;DHT22;26000;48.304;13.626;2023-03-14T01:12:32;8.00;99.90
40291;DHT22;26000;48.304;13.626;2023-03-14T01:14:57;8.00;99.90
40291;DHT22;26000;48.304;13.626;2023-03-14T01:17:23;8.00;99.90
40291;DHT22;26000;48.304;13.626;2023-03-14T01:19:49;8.00;99.90
40291;DHT22;26000;48.304;13.626;2023-03-14T01:22:14;8.10;99.90
40291;DHT22;26000;48.304;13.626;2023-03-14T01:24:40;8.10;99.90
40291;DHT22;26000;48.304;13.626;2023-03-14T01:27:05;8.10;99.90
40291;DHT22;26000;48.304;13.626;2023-03-14T01:29:31;8.20;99.90
40291;DHT22;26000;48.304;13.626;2023-03-14T01:31:57;8.20;99.90
40291;DHT22;26000;48.304;13.626;2023-03-14T01:34:22;8.30;99.90
40291;DHT22;26000;48.304;13.626;2023-03-14T01:36:48;8.30;99.90
40291;DHT22;26000;48.304;13.626;2023-03-14T01:39:14;8.40;99.90
40291;DHT22;26000;48.304;13.626;2023-03-14T01:41:40;8.40;99.90
40291;DHT22;26000;48.304;13.626;2023-03-14T01:44:10;8.40;99.90
40291;DHT22;26000;48.304;13.626;2023-03-14T01:46:39;8.40;99.90
40291;DHT22;26000;48.304;13.626;2023-03-14T01:54:10;8.50;99.90
40291;DHT22;26000;48.304;13.626;2023-03-14T01:56:39;8.40;99.90
40291;DHT22;26000;48.304;13.626;2023-03-14T01:59:08;8.40;99.90
40291;DHT22;26000;48.304;13.626;2023-03-14T02:01:35;8.40;99.90
40291;DHT22;26000;48.304;13.626;2023-03-14T02:04:03;8.30;99.90
40291;DHT22;26000;48.304;13.626;2023-03-14T02:06:37;8.30;99.90
40291;DHT22;26000;48.304;13.626;2023-03-14T02:09:03;8.30;99.90
40291;DHT22;26000;48.304;13.626;2023-03-14T02:11:30;8.30;99.90
40291;DHT22;26000;48.304;13.626;2023-03-14T02:13:57;8.40;99.90
40291;DHT22;26000;48.304;13.626;2023-03-14T02:16:25;8.50;99.90
40291;DHT22;26000;48.304;13.626;2023-03-14T02:18:51;8.50;99.90
40291;DHT22;26000;48.304;13.626;2023-03-14T02:22:07;8.40;99.90
40291;DHT22;26000;48.304;13.626;2023-03-14T02:24:28;8.40;99.90
40291;DHT22;26000;48.304;13.626;2023-03-14T02:27:14;8.40;99.90
40291;DHT22;26000;48.304;13.626;2023-03-14T02:29:54;8.40;99.90
40291;DHT22;26000;48.304;13.626;2023-03-14T02:32:24;8.40;99.90
40291;DHT22;26000;48.304;13.626;2023-03-14T02:34:54;8.40;99.90
40291;DHT22;26000;48.304;13.626;2023-03-14T02:37:23;8.30;99.90
40291;DHT22;26000;48.304;13.626;2023-03-14T02:39:51;8.40;99.90
40291;DHT22;26000;48.304;13.626;2023-03-14T02:42:17;8.30;99.90
40291;DHT22;26000;48.304;13.626;2023-03-14T02:44:54;8.30;99.90
40291;DHT22;26000;48.304;13.626;2023-03-14T02:47:24;8.40;99.90
40291;DHT22;26000;48.304;13.626;2023-03-14T02:49:54;8.40;99.90
40291;DHT22;26000;48.304;13.626;2023-03-14T02:52:22;8.40;99.90
40291;DHT22;26000;48.304;13.626;2023-03-14T02:54:47;8.40;99.90
40291;DHT22;26000;48.304;13.626;2023-03-14T02:57:13;8.40;99.90
40291;DHT22;26000;48.304;13.626;2023-03-14T02:59:38;8.40;99.90
40291;DHT22;26000;48.304;13.626;2023-03-14T03:02:04;8.30;99.90
40291;DHT22;26000;48.304;13.626;2023-03-14T03:04:29;8.30;99.90
40291;DHT22;26000;48.304;13.626;2023-03-14T03:06:55;8.30;99.90
40291;DHT22;26000;48.304;13.626;2023-03-14T03:09:20;8.30;99.90
40291;DHT22;26000;48.304;13.626;2023-03-14T03:11:46;8.30;99.90
40291;DHT22;26000;48.304;13.626;2023-03-14T03:14:12;8.30;99.90
40291;DHT22;26000;48.304;13.626;2023-03-14T03:16:37;8.30;99.90
40291;DHT22;26000;48.304;13.626;2023-03-14T03:19:03;8.40;99.90
40291;DHT22;26000;48.304;13.626;2023-03-14T03:21:28;8.40;99.90
40291;DHT22;26000;48.304;13.626;2023-03-14T03:23:54;8.50;99.90
40291;DHT22;26000;48.304;13.626;2023-03-14T03:26:19;8.40;99.90
40291;DHT22;26000;48.304;13.626;2023-03-14T03:28:45;8.50;99.90
40291;DHT22;26000;48.304;13.626;2023-03-14T03:31:11;8.50;99.90
40291;DHT22;26000;48.304;13.626;2023-03-14T03:33:37;8.60;99.90
40291;DHT22;26000;48.304;13.626;2023-03-14T03:36:03;8.60;99.90
40291;DHT22;26000;48.304;13.626;2023-03-14T03:38:29;8.60;99.90
40291;DHT22;26000;48.304;13.626;2023-03-14T03:40:54;8.70;99.90
40291;DHT22;26000;48.304;13.626;2023-03-14T03:43:20;8.70;99.90
40291;DHT22;26000;48.304;13.626;2023-03-14T03:45:45;8.70;99.90
40291;DHT22;26000;48.304;13.626;2023-03-14T03:48:11;8.80;99.90
40291;DHT22;26000;48.304;13.626;2023-03-14T03:50:36;8.90;99.90
40291;DHT22;26000;48.304;13.626;2023-03-14T03:53:02;9.00;99.90
40291;DHT22;26000;48.304;13.626;2023-03-14T03:55:28;9.10;99.90
40291;DHT22;26000;48.304;13.626;2023-03-14T03:57:54;9.30;99.90
40291;DHT22;26000;48.304;13.626;2023-03-14T04:00:19;9.50;99.90
40291;DHT22;26000;48.304;13.626;2023-03-14T04:02:45;9.60;99.90
40291;DHT22;26000;48.304;13.626;2023-03-14T04:05:10;9.70;99.90
40291;DHT22;26000;48.304;13.626;2023-03-14T04:07:36;9.80;99.90
40291;DHT22;26000;48.304;13.626;2023-03-14T04:10:02;9.80;99.90
40291;DHT22;26000;48.304;13.626;2023-03-14T04:12:27;9.80;99.90
40291;DHT22;26000;48.304;13.626;2023-03-14T04:14:53;9.80;99.90
40291;DHT22;26000;48.304;13.626;2023-03-14T04:17:19;9.70;99.90
40291;DHT22;26000;48.304;13.626;2023-03-14T04:19:44;9.70;99.90
40291;DHT22;26000;48.304;13.626;2023-03-14T04:22:10;9.70;99.90
40291;DHT22;26000;48.304;13.626;2023-03-14T04:24:35;9.60;99.90
40291;DHT22;26000;48.304;13.626;2023-03-14T04:27:01;9.70;99.90
40291;DHT22;26000;48.304;13.626;2023-03-14T04:29:26;9.70;99.90
40291;DHT22;26000;48.304;13.626;2023-03-14T04:31:52;9.70;99.90
40291;DHT22;26000;48.304;13.626;2023-03-14T04:34:17;9.60;99.90
40291;DHT22;26000;48.304;13.626;2023-03-14T04:36:43;9.60;99.90
40291;DHT22;26000;48.304;13.626;2023-03-14T04:39:09;9.50;99.90
40291;DHT22;26000;48.304;13.626;2023-03-14T04:41:34;9.50;99.90
40291;DHT22;26000;48.304;13.626;2023-03-14T04:44:00;9.50;99.90
40291;DHT22;26000;48.304;13.626;2023-03-14T04:46:25;9.40;99.90
40291;DHT22;26000;48.304;13.626;2023-03-14T04:48:51;9.40;99.90
40291;DHT22;26000;48.304;13.626;2023-03-14T04:51:17;9.40;99.90
40291;DHT22;26000;48.304;13.626;2023-03-14T04:53:42;9.40;99.90
40291;DHT22;26000;48.304;13.626;2023-03-14T04:56:08;9.40;99.90
40291;DHT22;26000;48.304;13.626;2023-03-14T04:58:34;9.40;99.90
40291;DHT22;26000;48.304;13.626;2023-03-14T05:01:04;9.50;99.90
40291;DHT22;26000;48.304;13.626;2023-03-14T05:03:30;9.50;99.90
40291;DHT22;26000;48.304;13.626;2023-03-14T05:05:55;9.50;99.90
40291;DHT22;26000;48.304;13.626;2023-03-14T05:08:22;9.50;99.90
40291;DHT22;26000;48.304;13.626;2023-03-14T05:10:52;9.50;99.90
40291;DHT22;26000;48.304;13.626;2023-03-14T05:13:19;9.40;99.90
40291;DHT22;26000;48.304;13.626;2023-03-14T05:15:44;9.40;99.90
40291;DHT22;26000;48.304;13.626;2023-03-14T05:18:10;9.40;99.90
40291;DHT22;26000;48.304;13.626;2023-03-14T05:20:35;9.40;99.90
40291;DHT22;26000;48.304;13.626;2023-03-14T05:23:01;9.40;99.90
40291;DHT22;26000;48.304;13.626;2023-03-14T05:25:26;9.40;99.90
40291;DHT22;26000;48.304;13.626;2023-03-14T05:27:55;9.40;99.90
40291;DHT22;26000;48.304;13.626;2023-03-14T05:30:21;9.30;99.90
40291;DHT22;26000;48.304;13.626;2023-03-14T05:32:47;9.30;99.90
40291;DHT22;26000;48.304;13.626;2023-03-14T05:35:13;9.40;99.90
40291;DHT22;26000;48.304;13.626;2023-03-14T05:37:39;9.40;99.90
40291;DHT22;26000;48.304;13.626;2023-03-14T05:40:06;9.40;99.90
40291;DHT22;26000;48.304;13.626;2023-03-14T05:42:32;9.40;99.90
40291;DHT22;26000;48.304;13.626;2023-03-14T05:44:58;9.40;99.90
40291;DHT22;26000;48.304;13.626;2023-03-14T05:47:24;9.40;99.90
40291;DHT22;26000;48.304;13.626;2023-03-14T05:49:49;9.40;99.90
40291;DHT22;26000;48.304;13.626;2023-03-14T05:52:15;9.40;99.90
40291;DHT22;26000;48.304;13.626;2023-03-14T05:54:41;9.50;99.90
40291;DHT22;26000;48.304;13.626;2023-03-14T05:57:07;9.50;99.90
40291;DHT22;26000;48.304;13.626;2023-03-14T05:59:32;9.50;99.90
40291;DHT22;26000;48.304;13.626;2023-03-14T06:01:58;9.40;99.90
40291;DHT22;26000;48.304;13.626;2023-03-14T06:04:24;9.40;99.90
40291;DHT22;26000;48.304;13.626;2023-03-14T06:06:50;9.40;99.90
40291;DHT22;26000;48.304;13.626;2023-03-14T06:09:15;9.50;99.90
40291;DHT22;26000;48.304;13.626;2023-03-14T06:11:41;9.40;99.90
40291;DHT22;26000;48.304;13.626;2023-03-14T06:14:07;9.40;99.90
40291;DHT22;26000;48.304;13.626;2023-03-14T06:16:32;9.40;99.90
40291;DHT22;26000;48.304;13.626;2023-03-14T06:18:58;9.40;99.90
40291;DHT22;26000;48.304;13.626;2023-03-14T06:21:24;9.30;99.90
40291;DHT22;26000;48.304;13.626;2023-03-14T06:23:50;9.40;99.90
40291;DHT22;26000;48.304;13.626;2023-03-14T06:26:15;9.40;99.90
40291;DHT22;26000;48.304;13.626;2023-03-14T06:28:41;9.50;99.90
40291;DHT22;26000;48.304;13.626;2023-03-14T06:31:07;9.50;99.90
40291;DHT22;26000;48.304;13.626;2023-03-14T06:33:32;9.50;99.90
40291;DHT22;26000;48.304;13.626;2023-03-14T06:35:58;9.50;99.90
40291;DHT22;26000;48.304;13.626;2023-03-14T06:38:23;9.50;99.90
40291;DHT22;26000;48.304;13.626;2023-03-14T06:40:49;9.50;99.90
40291;DHT22;26000;48.304;13.626;2023-03-14T06:43:15;9.50;99.90
40291;DHT22;26000;48.304;13.626;2023-03-14T06:45:40;9.60;99.90
40291;DHT22;26000;48.304;13.626;2023-03-14T06:48:06;9.60;99.90
40291;DHT22;26000;48.304;13.626;2023-03-14T06:50:31;9.60;99.90
40291;DHT22;26000;48.304;13.626;2023-03-14T06:52:57;9.60;99.90
40291;DHT22;26000;48.304;13.626;2023-03-14T06:55:23;9.60;99.90
40291;DHT22;26000;48.304;13.626;2023-03-14T06:57:48;9.60;99.90
40291;DHT22;26000;48.304;13.626;2023-03-14T07:00:14;9.60;99.90
40291;DHT22;26000;48.304;13.626;2023-03-14T07:02:40;9.50;99.90
40291;DHT22;26000;48.304;13.626;2023-03-14T07:05:06;9.60;99.90
40291;DHT22;26000;48.304;13.626;2023-03-14T07:07:32;9.60;99.90
40291;DHT22;26000;48.304;13.626;2023-03-14T07:09:58;9.60;99.90
40291;DHT22;26000;48.304;13.626;2023-03-14T07:12:23;9.60;99.90
40291;DHT22;26000;48.304;13.626;2023-03-14T07:14:49;9.60;99.90
40291;DHT22;26000;48.304;13.626;2023-03-14T07:17:14;9.60;99.90
40291;DHT22;26000;48.304;13.626;2023-03-14T07:19:40;9.60;99.90
40291;DHT22;26000;48.304;13.626;2023-03-14T07:22:06;9.60;99.90
40291;DHT22;26000;48.304;13.626;2023-03-14T07:24:31;9.60;99.90
40291;DHT22;26000;48.304;13.626;2023-03-14T07:26:57;9.70;99.90
40291;DHT22;26000;48.304;13.626;2023-03-14T07:29:23;9.70;99.90
40291;DHT22;26000;48.304;13.626;2023-03-14T07:31:48;9.60;99.90
40291;DHT22;26000;48.304;13.626;2023-03-14T07:34:14;9.70;99.90
40291;DHT22;26000;48.304;13.626;2023-03-14T07:36:40;9.70;99.90
40291;DHT22;26000;48.304;13.626;2023-03-14T07:39:05;9.70;99.90
40291;DHT22;26000;48.304;13.626;2023-03-14T07:41:32;9.70;99.90
40291;DHT22;26000;48.304;13.626;2023-03-14T07:43:57;9.60;99.90
40291;DHT22;26000;48.304;13.626;2023-03-14T07:46:23;9.60;99.90
40291;DHT22;26000;48.304;13.626;2023-03-14T07:48:48;9.60;99.90
40291;DHT22;26000;48.304;13.626;2023-03-14T07:51:14;9.60;99.90
40291;DHT22;26000;48.304;13.626;2023-03-14T07:53:40;9.60;99.90
40291;DHT22;26000;48.304;13.626;2023-03-14T07:56:05;9.60;99.90
40291;DHT22;26000;48.304;13.626;2023-03-14T07:58:31;9.60;99.90
40291;DHT22;26000;48.304;13.626;2023-03-14T08:00:58;9.60;99.90
40291;DHT22;26000;48.304;13.626;2023-03-14T08:03:24;9.60;99.90
40291;DHT22;26000;48.304;13.626;2023-03-14T08:05:50;9.60;99.90
40291;DHT22;26000;48.304;13.626;2023-03-14T08:08:16;9.60;99.90
40291;DHT22;26000;48.304;13.626;2023-03-14T08:10:42;9.70;99.90
40291;DHT22;26000;48.304;13.626;2023-03-14T08:13:09;9.70;99.90
40291;DHT22;26000;48.304;13.626;2023-03-14T08:15:34;9.70;99.90
40291;DHT22;26000;48.304;13.626;2023-03-14T08:18:00;9.70;99.90
40291;DHT22;26000;48.304;13.626;2023-03-14T08:20:28;9.70;99.90
40291;DHT22;26000;48.304;13.626;2023-03-14T08:22:57;9.70;99.90
40291;DHT22;26000;48.304;13.626;2023-03-14T08:25:24;9.80;99.90
40291;DHT22;26000;48.304;13.626;2023-03-14T08:27:50;9.80;99.90
40291;DHT22;26000;48.304;13.626;2023-03-14T08:30:17;9.80;99.90
40291;DHT22;26000;48.304;13.626;2023-03-14T08:32:43;9.70;99.90
40291;DHT22;26000;48.304;13.626;2023-03-14T08:35:10;9.70;99.90
40291;DHT22;26000;48.304;13.626;2023-03-14T08:37:36;9.80;99.90
40291;DHT22;26000;48.304;13.626;2023-03-14T08:40:04;9.80;99.90
40291;DHT22;26000;48.304;13.626;2023-03-14T08:42:34;9.80;99.90
40291;DHT22;26000;48.304;13.626;2023-03-14T08:44:59;9.70;99.90
40291;DHT22;26000;48.304;13.626;2023-03-14T08:47:25;9.80;99.90
40291;DHT22;26000;48.304;13.626;2023-03-14T08:49:50;9.80;99.90
40291;DHT22;26000;48.304;13.626;2023-03-14T08:52:16;9.70;99.90
40291;DHT22;26000;48.304;13.626;2023-03-14T08:54:46;9.70;99.90
40291;DHT22;26000;48.304;13.626;2023-03-14T08:57:11;9.70;99.90
40291;DHT22;26000;48.304;13.626;2023-03-14T08:59:37;9.70;99.90
40291;DHT22;26000;48.304;13.626;2023-03-14T09:02:03;9.70;99.90
40291;DHT22;26000;48.304;13.626;2023-03-14T09:04:29;9.70;99.90
40291;DHT22;26000;48.304;13.626;2023-03-14T09:06:55;9.80;99.90
40291;DHT22;26000;48.304;13.626;2023-03-14T09:09:23;9.80;99.90
40291;DHT22;26000;48.304;13.626;2023-03-14T09:11:49;9.90;99.90
40291;DHT22;26000;48.304;13.626;2023-03-14T09:14:15;9.80;99.90
40291;DHT22;26000;48.304;13.626;2023-03-14T09:16:40;9.80;99.90
40291;DHT22;26000;48.304;13.626;2023-03-14T09:19:06;9.90;99.90
40291;DHT22;26000;48.304;13.626;2023-03-14T09:21:31;9.90;99.90
40291;DHT22;26000;48.304;13.626;2023-03-14T09:23:57;9.90;99.90
40291;DHT22;26000;48.304;13.626;2023-03-14T09:26:22;9.80;99.90
40291;DHT22;26000;48.304;13.626;2023-03-14T09:28:48;9.80;99.90
40291;DHT22;26000;48.304;13.626;2023-03-14T09:31:14;9.70;99.90
40291;DHT22;26000;48.304;13.626;2023-03-14T09:33:40;9.80;99.90
40291;DHT22;26000;48.304;13.626;2023-03-14T09:36:06;9.80;99.90
40291;DHT22;26000;48.304;13.626;2023-03-14T09:38:33;9.90;99.90
40291;DHT22;26000;48.304;13.626;2023-03-14T09:41:01;9.80;99.90
40291;DHT22;26000;48.304;13.626;2023-03-14T09:43:29;9.80;99.90
40291;DHT22;26000;48.304;13.626;2023-03-14T09:45:57;9.80;99.90
40291;DHT22;26000;48.304;13.626;2023-03-14T09:48:30;9.80;99.90
40291;DHT22;26000;48.304;13.626;2023-03-14T09:50:58;9.70;99.90
40291;DHT22;26000;48.304;13.626;2023-03-14T09:53:28;9.70;99.90
40291;DHT22;26000;48.304;13.626;2023-03-14T09:55:58;9.70;99.90
40291;DHT22;26000;48.304;13.626;2023-03-14T09:58:24;9.70;99.90
40291;DHT22;26000;48.304;13.626;2023-03-14T10:00:54;9.60;99.90
40291;DHT22;26000;48.304;13.626;2023-03-14T10:03:29;9.60;99.90
40291;DHT22;26000;48.304;13.626;2023-03-14T10:05:56;9.60;99.90
40291;DHT22;26000;48.304;13.626;2023-03-14T10:08:22;9.60;99.90
40291;DHT22;26000;48.304;13.626;2023-03-14T10:10:48;9.60;99.90
40291;DHT22;26000;48.304;13.626;2023-03-14T10:13:20;9.60;99.90
40291;DHT22;26000;48.304;13.626;2023-03-14T10:15:58;9.60;99.90
40291;DHT22;26000;48.304;13.626;2023-03-14T10:18:24;9.60;99.90
40291;DHT22;26000;48.304;13.626;2023-03-14T10:21:21;9.70;99.90
40291;DHT22;26000;48.304;13.626;2023-03-14T10:23:47;9.70;99.90
40291;DHT22;26000;48.304;13.626;2023-03-14T10:26:15;9.70;99.90
40291;DHT22;26000;48.304;13.626;2023-03-14T10:28:52;9.70;99.90
40291;DHT22;26000;48.304;13.626;2023-03-14T10:31:18;9.70;99.90
40291;DHT22;26000;48.304;13.626;2023-03-14T10:34:02;9.80;99.90
40291;DHT22;26000;48.304;13.626;2023-03-14T10:36:30;9.80;99.90
40291;DHT22;26000;48.304;13.626;2023-03-14T10:44:51;9.80;99.90
40291;DHT22;26000;48.304;13.626;2023-03-14T10:47:23;9.80;99.90
40291;DHT22;26000;48.304;13.626;2023-03-14T10:49:49;9.80;99.90
40291;DHT22;26000;48.304;13.626;2023-03-14T10:54:41;9.90;99.90
40291;DHT22;26000;48.304;13.626;2023-03-14T10:57:11;10.00;99.90
40291;DHT22;26000;48.304;13.626;2023-03-14T10:59:39;9.90;99.90
40291;DHT22;26000;48.304;13.626;2023-03-14T11:08:20;10.00;99.90
40291;DHT22;26000;48.304;13.626;2023-03-14T11:10:53;9.90;99.90
40291;DHT22;26000;48.304;13.626;2023-03-14T11:13:22;9.90;99.90
40291;DHT22;26000;48.304;13.626;2023-03-14T11:33:15;9.80;99.90
40291;DHT22;26000;48.304;13.626;2023-03-14T11:35:55;9.80;99.90
40291;DHT22;26000;48.304;13.626;2023-03-14T11:38:34;9.80;99.90
40291;DHT22;26000;48.304;13.626;2023-03-14T11:41:04;9.90;99.90
40291;DHT22;26000;48.304;13.626;2023-03-14T11:43:37;9.90;99.90
40291;DHT22;26000;48.304;13.626;2023-03-14T11:46:17;9.80;99.90
40291;DHT22;26000;48.304;13.626;2023-03-14T11:48:51;9.70;99.90
40291;DHT22;26000;48.304;13.626;2023-03-14T11:51:35;9.70;99.90
40291;DHT22;26000;48.304;13.626;2023-03-14T11:57:29;9.70;99.90
40291;DHT22;26000;48.304;13.626;2023-03-14T12:10:54;9.70;99.90
40291;DHT22;26000;48.304;13.626;2023-03-14T12:13:21;9.70;99.90
40291;DHT22;26000;48.304;13.626;2023-03-14T12:15:59;9.70;99.90
40291;DHT22;26000;48.304;13.626;2023-03-14T12:18:30;9.90;99.90
40291;DHT22;26000;48.304;13.626;2023-03-14T12:20:59;9.90;99.90
40291;DHT22;26000;48.304;13.626;2023-03-14T12:23:27;9.90;99.90
40291;DHT22;26000;48.304;13.626;2023-03-14T12:28:39;10.00;99.90
40291;DHT22;26000;48.304;13.626;2023-03-14T12:42:13;10.00;99.90
40291;DHT22;26000;48.304;13.626;2023-03-14T12:44:45;10.00;99.90
40291;DHT22;26000;48.304;13.626;2023-03-14T12:49:48;10.00;99.90
40291;DHT22;26000;48.304;13.626;2023-03-14T12:52:21;9.90;99.90
40291;DHT22;26000;48.304;13.626;2023-03-14T12:55:02;9.80;99.90
40291;DHT22;26000;48.304;13.626;2023-03-14T13:00:18;9.70;99.90
40291;DHT22;26000;48.304;13.626;2023-03-14T13:02:46;9.80;99.90
40291;DHT22;26000;48.304;13.626;2023-03-14T13:05:19;9.80;99.90
40291;DHT22;26000;48.304;13.626;2023-03-14T13:10:23;10.00;99.90
40291;DHT22;26000;48.304;13.626;2023-03-14T13:15:37;10.20;99.90
40291;DHT22;26000;48.304;13.626;2023-03-14T13:18:17;10.20;99.90
40291;DHT22;26000;48.304;13.626;2023-03-14T13:21:34;10.30;99.90
40291;DHT22;26000;48.304;13.626;2023-03-14T13:24:06;10.20;99.90
40291;DHT22;26000;48.304;13.626;2023-03-14T13:26:44;10.20;99.90
40291;DHT22;26000;48.304;13.626;2023-03-14T13:29:30;10.20;99.90
40291;DHT22;26000;48.304;13.626;2023-03-14T13:31:59;10.10;99.90
40291;DHT22;26000;48.304;13.626;2023-03-14T13:34:33;10.10;99.90
40291;DHT22;26000;48.304;13.626;2023-03-14T13:36:59;10.10;99.90
40291;DHT22;26000;48.304;13.626;2023-03-14T13:39:26;10.20;99.90
40291;DHT22;26000;48.304;13.626;2023-03-14T13:42:00;10.30;99.90
40291;DHT22;26000;48.304;13.626;2023-03-14T13:44:39;10.40;99.90
40291;DHT22;26000;48.304;13.626;2023-03-14T13:47:10;10.50;99.90
40291;DHT22;26000;48.304;13.626;2023-03-14T13:49:38;10.60;99.90
40291;DHT22;26000;48.304;13.626;2023-03-14T13:54:46;10.90;99.90
40291;DHT22;26000;48.304;13.626;2023-03-14T13:57:12;11.00;99.90
40291;DHT22;26000;48.304;13.626;2023-03-14T13:59:37;11.00;99.90
40291;DHT22;26000;48.304;13.626;2023-03-14T14:02:09;11.20;99.90
40291;DHT22;26000;48.304;13.626;2023-03-14T14:04:38;11.20;99.90
40291;DHT22;26000;48.304;13.626;2023-03-14T14:07:29;11.10;99.90
40291;DHT22;26000;48.304;13.626;2023-03-14T14:09:56;11.20;99.90
40291;DHT22;26000;48.304;13.626;2023-03-14T14:12:58;11.20;99.90
40291;DHT22;26000;48.304;13.626;2023-03-14T14:15:33;11.30;99.90
40291;DHT22;26000;48.304;13.626;2023-03-14T14:18:05;11.40;99.90
40291;DHT22;26000;48.304;13.626;2023-03-14T14:20:41;11.50;99.90
40291;DHT22;26000;48.304;13.626;2023-03-14T14:23:14;11.50;99.90
40291;DHT22;26000;48.304;13.626;2023-03-14T14:25:40;11.50;99.90
40291;DHT22;26000;48.304;13.626;2023-03-14T14:28:26;11.40;99.90
40291;DHT22;26000;48.304;13.626;2023-03-14T14:33:59;11.50;99.90
40291;DHT22;26000;48.304;13.626;2023-03-14T14:36:32;11.50;99.90
40291;DHT22;26000;48.304;13.626;2023-03-14T14:41:30;11.50;99.90
40291;DHT22;26000;48.304;13.626;2023-03-14T14:43:57;11.50;99.90
40291;DHT22;26000;48.304;13.626;2023-03-14T14:46:23;11.60;99.90
40291;DHT22;26000;48.304;13.626;2023-03-14T14:48:56;11.50;99.90
40291;DHT22;26000;48.304;13.626;2023-03-14T14:51:25;11.60;99.90
40291;DHT22;26000;48.304;13.626;2023-03-14T14:54:10;11.40;99.90
40291;DHT22;26000;48.304;13.626;2023-03-14T14:56:36;11.40;99.90
40291;DHT22;26000;48.304;13.626;2023-03-14T14:59:03;11.30;99.90
40291;DHT22;26000;48.304;13.626;2023-03-14T15:01:39;11.30;99.90
40291;DHT22;26000;48.304;13.626;2023-03-14T15:04:10;11.30;99.90
40291;DHT22;26000;48.304;13.626;2023-03-14T15:06:38;11.30;99.90
40291;DHT22;26000;48.304;13.626;2023-03-14T15:09:04;11.30;99.90
40291;DHT22;26000;48.304;13.626;2023-03-14T15:11:30;11.30;99.90
40291;DHT22;26000;48.304;13.626;2023-03-14T15:13:56;11.50;99.90
40291;DHT22;26000;48.304;13.626;2023-03-14T15:16:25;11.50;99.90
40291;DHT22;26000;48.304;13.626;2023-03-14T15:18:57;11.50;99.90
40291;DHT22;26000;48.304;13.626;2023-03-14T15:21:25;11.50;99.90
40291;DHT22;26000;48.304;13.626;2023-03-14T15:23:51;11.40;99.90
40291;DHT22;26000;48.304;13.626;2023-03-14T15:26:27;11.40;99.90
40291;DHT22;26000;48.304;13.626;2023-03-14T15:28:53;11.40;99.90
40291;DHT22;26000;48.304;13.626;2023-03-14T15:31:20;11.30;99.90
40291;DHT22;26000;48.304;13.626;2023-03-14T15:33:47;11.20;99.90
40291;DHT22;26000;48.304;13.626;2023-03-14T15:36:19;11.30;99.90
40291;DHT22;26000;48.304;13.626;2023-03-14T15:38:46;11.30;99.90
40291;DHT22;26000;48.304;13.626;2023-03-14T15:41:11;11.30;99.90
40291;DHT22;26000;48.304;13.626;2023-03-14T15:43:37;11.40;99.90
40291;DHT22;26000;48.304;13.626;2023-03-14T15:46:02;11.40;99.90
40291;DHT22;26000;48.304;13.626;2023-03-14T15:48:28;11.40;99.90
40291;DHT22;26000;48.304;13.626;2023-03-14T15:50:53;11.40;99.90
40291;DHT22;26000;48.304;13.626;2023-03-14T15:53:19;11.50;99.90
40291;DHT22;26000;48.304;13.626;2023-03-14T15:55:45;11.40;99.90
40291;DHT22;26000;48.304;13.626;2023-03-14T15:58:16;11.40;99.90
40291;DHT22;26000;48.304;13.626;2023-03-14T16:00:42;11.40;99.90
40291;DHT22;26000;48.304;13.626;2023-03-14T16:03:07;11.30;99.90
40291;DHT22;26000;48.304;13.626;2023-03-14T16:05:33;11.10;99.90
40291;DHT22;26000;48.304;13.626;2023-03-14T16:07:58;11.00;99.90
40291;DHT22;26000;48.304;13.626;2023-03-14T16:10:26;11.00;99.90
40291;DHT22;26000;48.304;13.626;2023-03-14T16:12:52;11.00;99.90
40291;DHT22;26000;48.304;13.626;2023-03-14T16:15:17;10.90;99.90
40291;DHT22;26000;48.304;13.626;2023-03-14T16:17:43;10.90;99.90
40291;DHT22;26000;48.304;13.626;2023-03-14T16:20:10;10.90;99.90
40291;DHT22;26000;48.304;13.626;2023-03-14T16:22:35;10.70;99.90
40291;DHT22;26000;48.304;13.626;2023-03-14T16:25:06;10.70;99.90
40291;DHT22;26000;48.304;13.626;2023-03-14T16:27:32;10.60;99.90
40291;DHT22;26000;48.304;13.626;2023-03-14T16:29:58;10.50;99.90
40291;DHT22;26000;48.304;13.626;2023-03-14T16:32:27;10.40;99.90
40291;DHT22;26000;48.304;13.626;2023-03-14T16:34:53;10.20;99.90
40291;DHT22;26000;48.304;13.626;2023-03-14T16:37:18;10.10;99.90
40291;DHT22;26000;48.304;13.626;2023-03-14T16:39:46;10.00;99.90
40291;DHT22;26000;48.304;13.626;2023-03-14T16:42:13;9.90;99.90
40291;DHT22;26000;48.304;13.626;2023-03-14T16:44:38;9.80;99.90
40291;DHT22;26000;48.304;13.626;2023-03-14T16:47:05;9.80;99.90
40291;DHT22;26000;48.304;13.626;2023-03-14T16:49:30;9.70;99.90
40291;DHT22;26000;48.304;13.626;2023-03-14T16:51:56;9.60;99.90
40291;DHT22;26000;48.304;13.626;2023-03-14T16:54:22;9.60;99.90
40291;DHT22;26000;48.304;13.626;2023-03-14T16:56:47;9.50;99.90